sensor_id;sensor_type;location;lat;lon;timestamp;pressure;altitude;pressure_sealevel;temperature;humidity
54042;BME280;41156;51.508;5.406;2023-01-29T00:00:51;102961.22;;;-2.52;100.00
54042;BME280;41156;51.508;5.406;2023-01-29T00:03:52;102967.13;;;-2.47;100.00
54042;BME280;41156;51.508;5.406;2023-01-29T00:06:52;102964.94;;;-2.39;100.00
54042;BME280;41156;51.508;5.406;2023-01-29T00:09:52;102964.38;;;-2.28;100.00
54042;BME280;41156;51.508;5.406;2023-01-29T00:12:53;102958.72;;;-2.20;100.00
54042;BME280;41156;51.508;5.406;2023-01-29T00:15:56;102950.44;;;-2.14;100.00
54042;BME280;41156;51.508;5.406;2023-01-29T00:18:57;102952.88;;;-2.10;100.00
54042;BME280;41156;51.508;5.406;2023-01-29T00:21:57;102939.34;;;-2.05;100.00
54042;BME280;41156;51.508;5.406;2023-01-29T00:24:57;102940.06;;;-2.01;100.00
54042;BME280;41156;51.508;5.406;2023-01-29T00:27:58;102942.47;;;-1.97;100.00
54042;BME280;41156;51.508;5.406;2023-01-29T00:31:05;102935.31;;;-1.95;100.00
54042;BME280;41156;51.508;5.406;2023-01-29T00:34:06;102936.06;;;-1.93;100.00
54042;BME280;41156;51.508;5.406;2023-01-29T00:37:06;102932.38;;;-1.90;100.00
54042;BME280;41156;51.508;5.406;2023-01-29T00:40:08;102927.97;;;-1.90;100.00
54042;BME280;41156;51.508;5.406;2023-01-29T00:43:08;102931.38;;;-1.88;100.00
54042;BME280;41156;51.508;5.406;2023-01-29T00:46:27;102926.94;;;-1.87;100.00
54042;BME280;41156;51.508;5.406;2023-01-29T00:49:28;102920.63;;;-1.84;100.00
54042;BME280;41156;51.508;5.406;2023-01-29T00:52:29;102910.03;;;-1.84;100.00
54042;BME280;41156;51.508;5.406;2023-01-29T00:55:29;102902.16;;;-1.86;100.00
54042;BME280;41156;51.508;5.406;2023-01-29T00:58:29;102896.16;;;-1.90;100.00
54042;BME280;41156;51.508;5.406;2023-01-29T01:01:33;102891.88;;;-1.92;100.00
54042;BME280;41156;51.508;5.406;2023-01-29T01:04:52;102897.41;;;-1.97;100.00
54042;BME280;41156;51.508;5.406;2023-01-29T01:07:56;102886.97;;;-2.00;100.00
54042;BME280;41156;51.508;5.406;2023-01-29T01:11:04;102897.84;;;-2.05;100.00
54042;BME280;41156;51.508;5.406;2023-01-29T01:14:05;102904.31;;;-2.10;100.00
54042;BME280;41156;51.508;5.406;2023-01-29T01:17:05;102897.31;;;-2.11;100.00
54042;BME280;41156;51.508;5.406;2023-01-29T01:20:06;102905.34;;;-2.13;100.00
54042;BME280;41156;51.508;5.406;2023-01-29T01:23:06;102911.47;;;-2.12;100.00
54042;BME280;41156;51.508;5.406;2023-01-29T01:26:08;102897.31;;;-2.11;100.00
54042;BME280;41156;51.508;5.406;2023-01-29T01:29:08;102898.94;;;-2.09;100.00
54042;BME280;41156;51.508;5.406;2023-01-29T01:32:08;102907.75;;;-2.08;100.00
54042;BME280;41156;51.508;5.406;2023-01-29T01:35:09;102911.41;;;-2.11;100.00
54042;BME280;41156;51.508;5.406;2023-01-29T01:38:10;102915.16;;;-2.15;100.00
54042;BME280;41156;51.508;5.406;2023-01-29T01:41:17;102905.72;;;-2.20;100.00
54042;BME280;41156;51.508;5.406;2023-01-29T01:44:50;102914.00;;;-2.27;100.00
54042;BME280;41156;51.508;5.406;2023-01-29T01:48:15;102907.16;;;-2.31;100.00
54042;BME280;41156;51.508;5.406;2023-01-29T01:51:14;102896.88;;;-2.37;100.00
54042;BME280;41156;51.508;5.406;2023-01-29T01:54:23;102898.91;;;-2.42;100.00
54042;BME280;41156;51.508;5.406;2023-01-29T01:57:24;102907.06;;;-2.47;100.00
54042;BME280;41156;51.508;5.406;2023-01-29T02:00:26;102915.09;;;-2.48;100.00
54042;BME280;41156;51.508;5.406;2023-01-29T02:03:28;102912.63;;;-2.51;100.00
54042;BME280;41156;51.508;5.406;2023-01-29T02:06:48;102912.78;;;-2.54;100.00
54042;BME280;41156;51.508;5.406;2023-01-29T02:10:12;102920.03;;;-2.58;100.00
54042;BME280;41156;51.508;5.406;2023-01-29T02:13:14;102917.47;;;-2.59;100.00
54042;BME280;41156;51.508;5.406;2023-01-29T02:16:21;102914.88;;;-2.61;100.00
54042;BME280;41156;51.508;5.406;2023-01-29T02:32:42;102924.84;;;-2.49;100.00
54042;BME280;41156;51.508;5.406;2023-01-29T02:36:00;102922.75;;;-2.42;100.00
54042;BME280;41156;51.508;5.406;2023-01-29T02:39:16;102930.22;;;-2.33;100.00
54042;BME280;41156;51.508;5.406;2023-01-29T02:42:39;102928.88;;;-2.24;100.00
54042;BME280;41156;51.508;5.406;2023-01-29T02:45:57;102915.94;;;-2.13;100.00
54042;BME280;41156;51.508;5.406;2023-01-29T02:52:25;102917.84;;;-1.99;100.00
54042;BME280;41156;51.508;5.406;2023-01-29T02:55:35;102911.47;;;-1.95;100.00
54042;BME280;41156;51.508;5.406;2023-01-29T02:58:44;102899.59;;;-1.88;100.00
54042;BME280;41156;51.508;5.406;2023-01-29T03:01:50;102899.25;;;-1.81;100.00
54042;BME280;41156;51.508;5.406;2023-01-29T03:04:58;102907.00;;;-1.78;100.00
54042;BME280;41156;51.508;5.406;2023-01-29T03:08:03;102903.28;;;-1.74;100.00
54042;BME280;41156;51.508;5.406;2023-01-29T03:11:06;102905.59;;;-1.68;100.00
54042;BME280;41156;51.508;5.406;2023-01-29T03:14:12;102905.25;;;-1.62;100.00
54042;BME280;41156;51.508;5.406;2023-01-29T03:17:16;102908.50;;;-1.57;100.00
54042;BME280;41156;51.508;5.406;2023-01-29T03:20:22;102900.38;;;-1.54;100.00
54042;BME280;41156;51.508;5.406;2023-01-29T03:23:25;102902.00;;;-1.51;100.00
54042;BME280;41156;51.508;5.406;2023-01-29T03:26:46;102900.03;;;-1.47;100.00
54042;BME280;41156;51.508;5.406;2023-01-29T03:30:06;102903.38;;;-1.44;100.00
54042;BME280;41156;51.508;5.406;2023-01-29T03:33:31;102895.41;;;-1.44;100.00
54042;BME280;41156;51.508;5.406;2023-01-29T03:36:41;102891.75;;;-1.41;100.00
54042;BME280;41156;51.508;5.406;2023-01-29T03:39:44;102892.50;;;-1.39;100.00
54042;BME280;41156;51.508;5.406;2023-01-29T03:42:58;102889.69;;;-1.36;100.00
54042;BME280;41156;51.508;5.406;2023-01-29T03:46:05;102891.22;;;-1.32;100.00
54042;BME280;41156;51.508;5.406;2023-01-29T03:49:23;102897.28;;;-1.30;100.00
54042;BME280;41156;51.508;5.406;2023-01-29T03:52:52;102890.88;;;-1.26;100.00
54042;BME280;41156;51.508;5.406;2023-01-29T03:56:11;102876.47;;;-1.22;100.00
54042;BME280;41156;51.508;5.406;2023-01-29T04:02:35;102878.03;;;-1.18;100.00
54042;BME280;41156;51.508;5.406;2023-01-29T04:05:49;102878.72;;;-1.14;100.00
54042;BME280;41156;51.508;5.406;2023-01-29T04:09:26;102873.31;;;-1.13;100.00
54042;BME280;41156;51.508;5.406;2023-01-29T04:12:33;102867.75;;;-1.08;100.00
54042;BME280;41156;51.508;5.406;2023-01-29T04:15:44;102859.69;;;-1.06;100.00
54042;BME280;41156;51.508;5.406;2023-01-29T04:18:49;102857.81;;;-1.04;100.00
54042;BME280;41156;51.508;5.406;2023-01-29T04:21:52;102868.25;;;-1.01;100.00
54042;BME280;41156;51.508;5.406;2023-01-29T04:24:57;102854.81;;;-0.98;100.00
54042;BME280;41156;51.508;5.406;2023-01-29T04:31:23;102853.75;;;-0.96;100.00
54042;BME280;41156;51.508;5.406;2023-01-29T04:34:29;102858.97;;;-0.94;100.00
54042;BME280;41156;51.508;5.406;2023-01-29T04:37:48;102859.66;;;-0.90;100.00
54042;BME280;41156;51.508;5.406;2023-01-29T04:41:01;102862.97;;;-0.87;100.00
54042;BME280;41156;51.508;5.406;2023-01-29T04:44:15;102847.84;;;-0.85;100.00
54042;BME280;41156;51.508;5.406;2023-01-29T04:50:47;102830.69;;;-0.79;100.00
54042;BME280;41156;51.508;5.406;2023-01-29T04:53:58;102827.94;;;-0.78;100.00
54042;BME280;41156;51.508;5.406;2023-01-29T04:57:13;102821.56;;;-0.75;100.00
54042;BME280;41156;51.508;5.406;2023-01-29T05:00:18;102810.94;;;-0.75;100.00
54042;BME280;41156;51.508;5.406;2023-01-29T05:03:22;102807.25;;;-0.72;100.00
54042;BME280;41156;51.508;5.406;2023-01-29T05:06:24;102800.16;;;-0.72;100.00
54042;BME280;41156;51.508;5.406;2023-01-29T05:09:25;102806.25;;;-0.70;100.00
54042;BME280;41156;51.508;5.406;2023-01-29T05:12:28;102807.28;;;-0.58;100.00
54042;BME280;41156;51.508;5.406;2023-01-29T05:15:34;102803.41;;;-0.52;100.00
54042;BME280;41156;51.508;5.406;2023-01-29T05:18:36;102802.25;;;-0.48;100.00
54042;BME280;41156;51.508;5.406;2023-01-29T05:21:37;102806.22;;;-0.56;100.00
54042;BME280;41156;51.508;5.406;2023-01-29T05:24:39;102798.66;;;-0.47;100.00
54042;BME280;41156;51.508;5.406;2023-01-29T05:27:39;102793.91;;;-0.42;100.00
54042;BME280;41156;51.508;5.406;2023-01-29T05:30:58;102792.88;;;-0.40;100.00
54042;BME280;41156;51.508;5.406;2023-01-29T05:33:58;102781.28;;;-0.39;100.00
54042;BME280;41156;51.508;5.406;2023-01-29T05:36:58;102780.34;;;-0.38;100.00
54042;BME280;41156;51.508;5.406;2023-01-29T05:39:58;102775.78;;;-0.35;100.00
54042;BME280;41156;51.508;5.406;2023-01-29T05:42:59;102783.75;;;-0.35;100.00
54042;BME280;41156;51.508;5.406;2023-01-29T05:45:59;102789.06;;;-0.35;100.00
54042;BME280;41156;51.508;5.406;2023-01-29T05:49:00;102795.13;;;-0.33;100.00
54042;BME280;41156;51.508;5.406;2023-01-29T05:52:00;102788.97;;;-0.34;100.00
54042;BME280;41156;51.508;5.406;2023-01-29T05:55:00;102794.09;;;-0.31;100.00
54042;BME280;41156;51.508;5.406;2023-01-29T05:58:00;102796.66;;;-0.29;100.00
54042;BME280;41156;51.508;5.406;2023-01-29T06:01:13;102787.75;;;-0.28;100.00
54042;BME280;41156;51.508;5.406;2023-01-29T06:04:13;102795.59;;;-0.27;100.00
54042;BME280;41156;51.508;5.406;2023-01-29T06:07:14;102788.41;;;-0.25;100.00
54042;BME280;41156;51.508;5.406;2023-01-29T06:10:15;102797.97;;;-0.22;100.00
54042;BME280;41156;51.508;5.406;2023-01-29T06:13:16;102797.03;;;-0.21;100.00
54042;BME280;41156;51.508;5.406;2023-01-29T06:16:16;102799.50;;;-0.18;100.00
54042;BME280;41156;51.508;5.406;2023-01-29T06:19:17;102808.22;;;-0.16;100.00
54042;BME280;41156;51.508;5.406;2023-01-29T06:22:17;102812.63;;;-0.15;100.00
54042;BME280;41156;51.508;5.406;2023-01-29T06:25:17;102826.75;;;-0.14;100.00
54042;BME280;41156;51.508;5.406;2023-01-29T06:28:17;102832.91;;;-0.14;100.00
54042;BME280;41156;51.508;5.406;2023-01-29T06:31:18;102826.66;;;-0.13;100.00
54042;BME280;41156;51.508;5.406;2023-01-29T06:34:18;102807.06;;;-0.12;100.00
54042;BME280;41156;51.508;5.406;2023-01-29T06:37:18;102785.81;;;-0.12;100.00
54042;BME280;41156;51.508;5.406;2023-01-29T06:40:19;102784.88;;;-0.11;100.00
54042;BME280;41156;51.508;5.406;2023-01-29T06:43:19;102776.91;;;-0.11;100.00
54042;BME280;41156;51.508;5.406;2023-01-29T06:46:20;102770.75;;;-0.11;100.00
54042;BME280;41156;51.508;5.406;2023-01-29T06:49:20;102790.19;;;-0.11;100.00
54042;BME280;41156;51.508;5.406;2023-01-29T06:52:20;102785.63;;;-0.09;100.00
54042;BME280;41156;51.508;5.406;2023-01-29T06:55:21;102781.06;;;-0.07;100.00
54042;BME280;41156;51.508;5.406;2023-01-29T06:58:21;102770.56;;;-0.08;100.00
54042;BME280;41156;51.508;5.406;2023-01-29T07:01:21;102765.13;;;-0.07;100.00
54042;BME280;41156;51.508;5.406;2023-01-29T07:04:22;102767.69;;;-0.05;100.00
54042;BME280;41156;51.508;5.406;2023-01-29T07:07:22;102765.81;;;-0.03;100.00
54042;BME280;41156;51.508;5.406;2023-01-29T07:10:22;102771.97;;;-0.03;100.00
54042;BME280;41156;51.508;5.406;2023-01-29T07:13:23;102776.34;;;-0.02;100.00
54042;BME280;41156;51.508;5.406;2023-01-29T07:16:23;102770.03;;;-0.01;100.00
54042;BME280;41156;51.508;5.406;2023-01-29T07:19:25;102779.00;;;-0.02;100.00
54042;BME280;41156;51.508;5.406;2023-01-29T07:22:26;102791.22;;;0.01;100.00
54042;BME280;41156;51.508;5.406;2023-01-29T07:25:26;102785.06;;;0.01;100.00
54042;BME280;41156;51.508;5.406;2023-01-29T07:28:26;102782.41;;;0.01;100.00
54042;BME280;41156;51.508;5.406;2023-01-29T07:31:26;102785.81;;;0.03;100.00
54042;BME280;41156;51.508;5.406;2023-01-29T07:34:27;102784.09;;;0.02;100.00
54042;BME280;41156;51.508;5.406;2023-01-29T07:37:27;102787.53;;;0.04;100.00
54042;BME280;41156;51.508;5.406;2023-01-29T07:40:27;102775.91;;;0.05;100.00
54042;BME280;41156;51.508;5.406;2023-01-29T07:43:28;102767.94;;;0.05;100.00
54042;BME280;41156;51.508;5.406;2023-01-29T07:46:29;102765.19;;;0.06;100.00
54042;BME280;41156;51.508;5.406;2023-01-29T07:49:29;102774.03;;;0.07;100.00
54042;BME280;41156;51.508;5.406;2023-01-29T07:52:31;102772.22;;;0.07;100.00
54042;BME280;41156;51.508;5.406;2023-01-29T07:55:32;102782.75;;;0.09;100.00
54042;BME280;41156;51.508;5.406;2023-01-29T07:58:32;102787.19;;;0.08;100.00
54042;BME280;41156;51.508;5.406;2023-01-29T08:01:33;102776.47;;;0.10;100.00
54042;BME280;41156;51.508;5.406;2023-01-29T08:04:33;102778.09;;;0.12;100.00
54042;BME280;41156;51.508;5.406;2023-01-29T08:07:33;102778.00;;;0.14;100.00
54042;BME280;41156;51.508;5.406;2023-01-29T08:10:35;102767.28;;;0.15;100.00
54042;BME280;41156;51.508;5.406;2023-01-29T08:13:35;102766.28;;;0.16;100.00
54042;BME280;41156;51.508;5.406;2023-01-29T08:16:36;102762.59;;;0.19;100.00
54042;BME280;41156;51.508;5.406;2023-01-29T08:19:36;102761.53;;;0.22;100.00
54042;BME280;41156;51.508;5.406;2023-01-29T08:22:37;102771.97;;;0.25;100.00
54042;BME280;41156;51.508;5.406;2023-01-29T08:25:37;102765.81;;;0.24;100.00
54042;BME280;41156;51.508;5.406;2023-01-29T08:28:37;102764.88;;;0.25;100.00
54042;BME280;41156;51.508;5.406;2023-01-29T08:31:38;102755.91;;;0.26;100.00
54042;BME280;41156;51.508;5.406;2023-01-29T08:34:38;102754.22;;;0.25;100.00
54042;BME280;41156;51.508;5.406;2023-01-29T08:37:38;102755.72;;;0.29;100.00
54042;BME280;41156;51.508;5.406;2023-01-29T08:40:38;102749.38;;;0.32;100.00
54042;BME280;41156;51.508;5.406;2023-01-29T08:43:39;102746.72;;;0.32;100.00
54042;BME280;41156;51.508;5.406;2023-01-29T08:46:39;102734.25;;;0.32;100.00
54042;BME280;41156;51.508;5.406;2023-01-29T08:49:39;102735.00;;;0.34;100.00
54042;BME280;41156;51.508;5.406;2023-01-29T08:52:40;102733.97;;;0.37;100.00
54042;BME280;41156;51.508;5.406;2023-01-29T08:55:41;102740.03;;;0.39;100.00
54042;BME280;41156;51.508;5.406;2023-01-29T08:58:41;102739.91;;;0.41;100.00
54042;BME280;41156;51.508;5.406;2023-01-29T09:01:42;102742.38;;;0.44;100.00
54042;BME280;41156;51.508;5.406;2023-01-29T09:04:42;102747.41;;;0.48;100.00
54042;BME280;41156;51.508;5.406;2023-01-29T09:07:42;102734.75;;;0.52;100.00
54042;BME280;41156;51.508;5.406;2023-01-29T09:10:43;102741.56;;;0.56;100.00
54042;BME280;41156;51.508;5.406;2023-01-29T09:13:43;102747.50;;;0.60;100.00
54042;BME280;41156;51.508;5.406;2023-01-29T09:16:43;102734.13;;;0.61;100.00
54042;BME280;41156;51.508;5.406;2023-01-29T09:19:44;102735.63;;;0.65;100.00
54042;BME280;41156;51.508;5.406;2023-01-29T09:22:45;102721.25;;;0.68;100.00
54042;BME280;41156;51.508;5.406;2023-01-29T09:25:45;102720.94;;;0.72;100.00
54042;BME280;41156;51.508;5.406;2023-01-29T09:28:46;102721.59;;;0.76;100.00
54042;BME280;41156;51.508;5.406;2023-01-29T09:31:46;102724.16;;;0.78;100.00
54042;BME280;41156;51.508;5.406;2023-01-29T09:34:46;102715.94;;;0.81;100.00
54042;BME280;41156;51.508;5.406;2023-01-29T09:37:48;102723.00;;;0.82;100.00
54042;BME280;41156;51.508;5.406;2023-01-29T09:44:02;102720.66;;;0.90;100.00
54042;BME280;41156;51.508;5.406;2023-01-29T09:47:03;102717.03;;;0.91;100.00
54042;BME280;41156;51.508;5.406;2023-01-29T09:50:18;102715.00;;;0.95;100.00
54042;BME280;41156;51.508;5.406;2023-01-29T09:53:28;102717.25;;;1.01;100.00
54042;BME280;41156;51.508;5.406;2023-01-29T09:56:31;102709.88;;;1.04;100.00
54042;BME280;41156;51.508;5.406;2023-01-29T09:59:32;102709.69;;;1.07;100.00
54042;BME280;41156;51.508;5.406;2023-01-29T10:24:59;102715.44;;;1.27;100.00
54042;BME280;41156;51.508;5.406;2023-01-29T10:28:02;102715.97;;;1.32;100.00
54042;BME280;41156;51.508;5.406;2023-01-29T10:31:23;102713.81;;;1.37;100.00
54042;BME280;41156;51.508;5.406;2023-01-29T10:37:39;102712.75;;;1.40;100.00
54042;BME280;41156;51.508;5.406;2023-01-29T10:47:32;102704.72;;;1.53;100.00
54042;BME280;41156;51.508;5.406;2023-01-29T10:50:49;102693.00;;;1.55;100.00
54042;BME280;41156;51.508;5.406;2023-01-29T11:00:40;102699.78;;;1.72;100.00
54042;BME280;41156;51.508;5.406;2023-01-29T11:03:40;102683.56;;;1.75;100.00
54042;BME280;41156;51.508;5.406;2023-01-29T11:06:41;102683.09;;;1.81;100.00
54042;BME280;41156;51.508;5.406;2023-01-29T11:09:55;102672.00;;;1.88;100.00
54042;BME280;41156;51.508;5.406;2023-01-29T11:12:57;102664.41;;;1.94;100.00
54042;BME280;41156;51.508;5.406;2023-01-29T11:15:58;102656.81;;;2.01;100.00
54042;BME280;41156;51.508;5.406;2023-01-29T11:18:59;102651.03;;;2.07;100.00
54042;BME280;41156;51.508;5.406;2023-01-29T11:22:00;102644.59;;;2.10;100.00
54042;BME280;41156;51.508;5.406;2023-01-29T11:25:17;102634.31;;;2.16;100.00
54042;BME280;41156;51.508;5.406;2023-01-29T11:28:55;102628.53;;;2.22;100.00
54042;BME280;41156;51.508;5.406;2023-01-29T11:31:56;102621.13;;;2.26;100.00
54042;BME280;41156;51.508;5.406;2023-01-29T11:41:15;102605.66;;;2.43;100.00
54042;BME280;41156;51.508;5.406;2023-01-29T11:47:38;102596.72;;;2.55;100.00
54042;BME280;41156;51.508;5.406;2023-01-29T11:50:39;102583.22;;;2.56;100.00
54042;BME280;41156;51.508;5.406;2023-01-29T11:53:42;102574.50;;;2.54;100.00
54042;BME280;41156;51.508;5.406;2023-01-29T11:56:45;102573.31;;;2.58;100.00
54042;BME280;41156;51.508;5.406;2023-01-29T11:59:49;102559.97;;;2.58;100.00
54042;BME280;41156;51.508;5.406;2023-01-29T12:02:56;102553.63;;;2.59;100.00
54042;BME280;41156;51.508;5.406;2023-01-29T12:06:03;102537.16;;;2.66;100.00
54042;BME280;41156;51.508;5.406;2023-01-29T12:09:12;102535.09;;;2.69;100.00
54042;BME280;41156;51.508;5.406;2023-01-29T12:12:41;102523.94;;;2.75;100.00
54042;BME280;41156;51.508;5.406;2023-01-29T12:15:41;102519.19;;;2.79;100.00
54042;BME280;41156;51.508;5.406;2023-01-29T12:18:45;102521.63;;;2.82;100.00
54042;BME280;41156;51.508;5.406;2023-01-29T12:21:52;102507.44;;;2.82;100.00
54042;BME280;41156;51.508;5.406;2023-01-29T12:25:06;102504.00;;;2.80;100.00
54042;BME280;41156;51.508;5.406;2023-01-29T12:28:33;102510.22;;;2.80;100.00
54042;BME280;41156;51.508;5.406;2023-01-29T12:31:43;102507.66;;;2.78;100.00
54042;BME280;41156;51.508;5.406;2023-01-29T12:35:02;102513.00;;;2.78;100.00
54042;BME280;41156;51.508;5.406;2023-01-29T12:41:28;102494.69;;;2.74;100.00
54042;BME280;41156;51.508;5.406;2023-01-29T12:44:41;102485.09;;;2.71;100.00
54042;BME280;41156;51.508;5.406;2023-01-29T12:47:48;102477.22;;;2.70;100.00
54042;BME280;41156;51.508;5.406;2023-01-29T12:50:51;102486.31;;;2.67;100.00
54042;BME280;41156;51.508;5.406;2023-01-29T12:53:59;102472.97;;;2.67;100.00
54042;BME280;41156;51.508;5.406;2023-01-29T12:57:03;102474.06;;;2.65;100.00
54042;BME280;41156;51.508;5.406;2023-01-29T13:03:23;102461.94;;;2.61;100.00
54042;BME280;41156;51.508;5.406;2023-01-29T13:06:41;102463.75;;;2.60;100.00
54042;BME280;41156;51.508;5.406;2023-01-29T13:09:48;102456.59;;;2.61;100.00
54042;BME280;41156;51.508;5.406;2023-01-29T13:13:00;102455.53;;;2.63;100.00
54042;BME280;41156;51.508;5.406;2023-01-29T13:16:05;102454.66;;;2.63;100.00
54042;BME280;41156;51.508;5.406;2023-01-29T13:19:23;102449.19;;;2.64;100.00
54042;BME280;41156;51.508;5.406;2023-01-29T13:22:32;102450.03;;;2.65;100.00
54042;BME280;41156;51.508;5.406;2023-01-29T13:25:34;102442.78;;;2.67;100.00
54042;BME280;41156;51.508;5.406;2023-01-29T13:28:35;102434.00;;;2.65;100.00
54042;BME280;41156;51.508;5.406;2023-01-29T13:31:36;102429.31;;;2.68;100.00
54042;BME280;41156;51.508;5.406;2023-01-29T13:34:44;102426.50;;;2.70;100.00
54042;BME280;41156;51.508;5.406;2023-01-29T13:37:52;102419.22;;;2.72;100.00
54042;BME280;41156;51.508;5.406;2023-01-29T13:41:00;102415.69;;;2.71;100.00
54042;BME280;41156;51.508;5.406;2023-01-29T13:44:04;102399.41;;;2.74;100.00
54042;BME280;41156;51.508;5.406;2023-01-29T13:47:08;102405.63;;;2.75;100.00
54042;BME280;41156;51.508;5.406;2023-01-29T13:50:20;102405.75;;;2.73;100.00
54042;BME280;41156;51.508;5.406;2023-01-29T13:53:31;102391.41;;;2.74;100.00
54042;BME280;41156;51.508;5.406;2023-01-29T13:59:53;102399.06;;;2.79;100.00
54042;BME280;41156;51.508;5.406;2023-01-29T14:05:59;102401.97;;;2.76;100.00
54042;BME280;41156;51.508;5.406;2023-01-29T14:08:59;102392.28;;;2.75;100.00
54042;BME280;41156;51.508;5.406;2023-01-29T14:12:01;102393.13;;;2.75;100.00
54042;BME280;41156;51.508;5.406;2023-01-29T14:18:19;102368.25;;;2.75;100.00
54042;BME280;41156;51.508;5.406;2023-01-29T14:21:26;102368.13;;;2.76;100.00
54042;BME280;41156;51.508;5.406;2023-01-29T14:24:30;102367.13;;;2.77;100.00
54042;BME280;41156;51.508;5.406;2023-01-29T14:27:31;102371.38;;;2.80;100.00
54042;BME280;41156;51.508;5.406;2023-01-29T14:30:33;102369.69;;;2.79;100.00
54042;BME280;41156;51.508;5.406;2023-01-29T14:33:36;102364.09;;;2.82;100.00
54042;BME280;41156;51.508;5.406;2023-01-29T14:36:39;102360.59;;;2.82;100.00
54042;BME280;41156;51.508;5.406;2023-01-29T14:45:54;102358.63;;;2.84;100.00
54042;BME280;41156;51.508;5.406;2023-01-29T14:49:50;102353.16;;;2.85;100.00
54042;BME280;41156;51.508;5.406;2023-01-29T14:52:51;102345.88;;;2.87;100.00
54042;BME280;41156;51.508;5.406;2023-01-29T14:56:16;102352.78;;;2.90;100.00
54042;BME280;41156;51.508;5.406;2023-01-29T14:59:28;102341.00;;;2.92;100.00
54042;BME280;41156;51.508;5.406;2023-01-29T15:02:37;102338.31;;;2.92;100.00
54042;BME280;41156;51.508;5.406;2023-01-29T15:05:40;102346.78;;;2.97;100.00
54042;BME280;41156;51.508;5.406;2023-01-29T15:08:46;102342.44;;;2.96;100.00
54042;BME280;41156;51.508;5.406;2023-01-29T15:11:57;102337.69;;;3.00;100.00
54042;BME280;41156;51.508;5.406;2023-01-29T15:18:31;102337.56;;;3.02;100.00
54042;BME280;41156;51.508;5.406;2023-01-29T15:21:33;102323.22;;;3.03;100.00
54042;BME280;41156;51.508;5.406;2023-01-29T15:24:35;102312.53;;;3.03;100.00
54042;BME280;41156;51.508;5.406;2023-01-29T15:27:40;102316.91;;;3.04;100.00
54042;BME280;41156;51.508;5.406;2023-01-29T15:30:41;102314.25;;;3.04;100.00
54042;BME280;41156;51.508;5.406;2023-01-29T15:33:44;102315.91;;;3.05;100.00
54042;BME280;41156;51.508;5.406;2023-01-29T15:36:47;102309.88;;;3.03;100.00
54042;BME280;41156;51.508;5.406;2023-01-29T15:39:48;102301.00;;;3.02;100.00
54042;BME280;41156;51.508;5.406;2023-01-29T15:42:49;102302.97;;;3.00;100.00
54042;BME280;41156;51.508;5.406;2023-01-29T15:45:51;102297.88;;;2.97;100.00
54042;BME280;41156;51.508;5.406;2023-01-29T15:48:54;102305.78;;;2.99;100.00
54042;BME280;41156;51.508;5.406;2023-01-29T15:51:57;102293.63;;;2.94;100.00
54042;BME280;41156;51.508;5.406;2023-01-29T15:55:02;102281.53;;;2.90;100.00
54042;BME280;41156;51.508;5.406;2023-01-29T15:58:06;102274.50;;;2.89;100.00
54042;BME280;41156;51.508;5.406;2023-01-29T16:01:12;102271.22;;;2.86;100.00
54042;BME280;41156;51.508;5.406;2023-01-29T16:04:23;102267.72;;;2.85;100.00
54042;BME280;41156;51.508;5.406;2023-01-29T16:07:26;102274.88;;;2.85;100.00
54042;BME280;41156;51.508;5.406;2023-01-29T16:10:29;102270.66;;;2.82;100.00
54042;BME280;41156;51.508;5.406;2023-01-29T16:13:33;102274.16;;;2.83;100.00
54042;BME280;41156;51.508;5.406;2023-01-29T16:16:34;102260.09;;;2.81;100.00
54042;BME280;41156;51.508;5.406;2023-01-29T16:19:34;102264.59;;;2.80;100.00
54042;BME280;41156;51.508;5.406;2023-01-29T16:22:35;102260.34;;;2.77;100.00
54042;BME280;41156;51.508;5.406;2023-01-29T16:25:37;102256.84;;;2.77;100.00
54042;BME280;41156;51.508;5.406;2023-01-29T16:28:42;102247.13;;;2.76;100.00
54042;BME280;41156;51.508;5.406;2023-01-29T16:31:44;102239.25;;;2.74;100.00
54042;BME280;41156;51.508;5.406;2023-01-29T16:34:46;102244.59;;;2.74;100.00
54042;BME280;41156;51.508;5.406;2023-01-29T16:37:49;102243.03;;;2.72;100.00
54042;BME280;41156;51.508;5.406;2023-01-29T16:47:22;102241.34;;;2.71;100.00
54042;BME280;41156;51.508;5.406;2023-01-29T16:50:31;102235.16;;;2.70;100.00
54042;BME280;41156;51.508;5.406;2023-01-29T16:53:35;102231.66;;;2.70;100.00
54042;BME280;41156;51.508;5.406;2023-01-29T16:56:36;102230.91;;;2.68;100.00
54042;BME280;41156;51.508;5.406;2023-01-29T16:59:38;102228.13;;;2.69;100.00
54042;BME280;41156;51.508;5.406;2023-01-29T17:02:39;102231.66;;;2.70;100.00
54042;BME280;41156;51.508;5.406;2023-01-29T17:05:39;102229.94;;;2.69;100.00
54042;BME280;41156;51.508;5.406;2023-01-29T17:08:41;102234.44;;;2.68;100.00
54042;BME280;41156;51.508;5.406;2023-01-29T17:11:42;102227.16;;;2.70;100.00
54042;BME280;41156;51.508;5.406;2023-01-29T17:14:52;102225.44;;;2.69;100.00
54042;BME280;41156;51.508;5.406;2023-01-29T17:17:52;102227.16;;;2.70;100.00
54042;BME280;41156;51.508;5.406;2023-01-29T17:20:52;102219.28;;;2.69;100.00
54042;BME280;41156;51.508;5.406;2023-01-29T17:23:53;102215.75;;;2.68;100.00
54042;BME280;41156;51.508;5.406;2023-01-29T17:26:53;102218.31;;;2.70;100.00
54042;BME280;41156;51.508;5.406;2023-01-29T17:29:54;102212.97;;;2.70;100.00
54042;BME280;41156;51.508;5.406;2023-01-29T17:32:54;102206.75;;;2.69;100.00
54042;BME280;41156;51.508;5.406;2023-01-29T17:35:54;102218.31;;;2.70;100.00
54042;BME280;41156;51.508;5.406;2023-01-29T17:38:55;102222.66;;;2.71;100.00
54042;BME280;41156;51.508;5.406;2023-01-29T17:41:57;102210.31;;;2.70;100.00
54042;BME280;41156;51.508;5.406;2023-01-29T17:44:57;102203.97;;;2.71;100.00
54042;BME280;41156;51.508;5.406;2023-01-29T17:47:58;102201.28;;;2.71;100.00
54042;BME280;41156;51.508;5.406;2023-01-29T17:51:01;102202.13;;;2.71;100.00